createdAt,value
2022-12-23T00:00:41.453Z,98223.47
2022-12-23T00:03:08.567Z,98220.19
2022-12-23T00:05:38.093Z,98229.09
2022-12-23T00:08:06.342Z,98218.56
2022-12-23T00:10:34.014Z,98213.66
2022-12-23T00:13:19.544Z,98204.75
2022-12-23T00:15:46.367Z,98202.03
2022-12-23T00:18:13.176Z,98205.78
2022-12-23T00:20:39.961Z,98197.13
2022-12-23T00:23:07.139Z,98199.25
2022-12-23T00:25:42.504Z,98195.50
2022-12-23T00:28:13.832Z,98194.91
2022-12-23T00:30:55.768Z,98194.91
2022-12-23T00:33:43.631Z,98193.50
2022-12-23T00:36:27.805Z,98189.16
2022-12-23T00:39:14.633Z,98192.91
2022-12-23T00:42:00.422Z,98191.47
2022-12-23T00:44:27.573Z,98180.13
2022-12-23T00:46:54.431Z,98184.44
2022-12-23T00:49:40.097Z,98184.94
2022-12-23T00:52:10.343Z,98182.47
2022-12-23T00:54:37.175Z,98181.88
2022-12-23T00:57:04.181Z,98180.72
2022-12-23T00:59:30.988Z,98174.50
2022-12-23T01:02:16.567Z,98173.69
2022-12-23T01:05:02.038Z,98175.78
2022-12-23T01:07:29.098Z,98181.06
2022-12-23T01:09:55.907Z,98175.91
2022-12-23T01:12:22.959Z,98173.66
2022-12-23T01:14:49.913Z,98178.00
2022-12-23T01:17:16.936Z,98173.66
2022-12-23T01:19:43.870Z,98178.69
2022-12-23T01:22:10.701Z,98176.47
2022-12-23T01:24:37.562Z,98171.31
2022-12-23T01:27:04.397Z,98181.72
2022-12-23T01:29:31.321Z,98179.03
2022-12-23T01:31:58.160Z,98182.44
2022-12-23T01:34:26.585Z,98189.34
2022-12-23T01:36:55.301Z,98183.19
2022-12-23T01:39:22.066Z,98185.75
2022-12-23T01:42:07.493Z,98180.00
2022-12-23T01:44:55.379Z,98178.00
2022-12-23T01:47:28.158Z,98178.91
2022-12-23T01:50:00.700Z,98172.69
2022-12-23T01:52:28.616Z,98166.97
2022-12-23T01:54:56.656Z,98158.78
2022-12-23T01:57:24.152Z,98158.41
2022-12-23T02:00:10.037Z,98151.63
2022-12-23T02:02:56.898Z,98150.34
2022-12-23T02:05:24.330Z,98147.88
2022-12-23T02:08:11.982Z,98150.56
2022-12-23T02:11:25.016Z,98149.97
2022-12-23T02:14:27.245Z,98152.06
2022-12-23T02:17:08.035Z,98155.44
2022-12-23T02:19:56.272Z,98148.41
2022-12-23T02:22:53.252Z,98144.09
2022-12-23T02:25:20.003Z,98145.50
2022-12-23T02:28:14.746Z,98133.91
2022-12-23T02:30:51.115Z,98142.59
2022-12-23T02:34:06.049Z,98138.03
2022-12-23T02:37:07.810Z,98128.91
2022-12-23T02:39:56.516Z,98137.00
2022-12-23T02:42:28.789Z,98137.81
2022-12-23T02:45:07.510Z,98150.88
2022-12-23T02:47:50.164Z,98162.47
2022-12-23T02:50:26.407Z,98162.09
2022-12-23T02:52:56.577Z,98154.59
2022-12-23T02:55:29.885Z,98148.19
2022-12-23T02:57:59.794Z,98148.19
2022-12-23T03:00:27.021Z,98145.38
2022-12-23T03:02:53.971Z,98132.72
2022-12-23T03:05:29.218Z,98139.63
2022-12-23T03:08:02.604Z,98120.09
2022-12-23T03:10:40.915Z,98126.41
2022-12-23T03:13:35.328Z,98107.12
2022-12-23T03:16:20.420Z,98092.50
2022-12-23T03:19:03.497Z,98077.75
2022-12-23T03:21:53.181Z,98082.19
2022-12-23T03:24:44.917Z,98092.84
2022-12-23T03:27:27.215Z,98111.91
2022-12-23T03:30:06.645Z,98084.41
2022-12-23T03:32:43.953Z,98070.97
2022-12-23T03:35:12.999Z,98056.94
2022-12-23T03:37:44.893Z,98054.47
2022-12-23T03:40:37.995Z,98056.59
2022-12-23T03:43:11.458Z,98069.56
2022-12-23T03:45:44.584Z,98056.94
2022-12-23T03:48:23.021Z,98052.72
2022-12-23T03:50:54.578Z,98048.03
2022-12-23T03:53:46.763Z,98046.19
2022-12-23T03:56:20.358Z,98048.88
2022-12-23T03:58:58.574Z,98057.75
2022-12-23T04:02:04.690Z,98062.09
2022-12-23T04:04:43.677Z,98059.63
2022-12-23T04:07:12.193Z,98063.94
2022-12-23T04:09:40.189Z,98061.72
2022-12-23T04:12:07.708Z,98062.53
2022-12-23T04:14:35.660Z,98060.44
2022-12-23T04:17:02.816Z,98065.81
2022-12-23T04:19:29.620Z,98076.34
2022-12-23T04:22:00.101Z,98070.16
2022-12-23T04:24:26.911Z,98082.56
2022-12-23T04:26:53.743Z,98080.69
2022-12-23T04:29:20.534Z,98076.94
2022-12-23T04:31:47.429Z,98066.63
2022-12-23T04:34:14.326Z,98066.19
2022-12-23T04:36:41.120Z,98059.16
2022-12-23T04:39:09.094Z,98049.00
2022-12-23T04:41:35.896Z,98053.66
2022-12-23T04:44:02.715Z,98027.59
2022-12-23T04:46:29.583Z,98033.78
2022-12-23T04:48:56.506Z,98038.72
2022-12-23T04:51:23.767Z,98033.72
2022-12-23T04:53:50.620Z,98040.72
2022-12-23T04:56:17.475Z,98026.22
2022-12-23T04:58:44.241Z,98028.44
2022-12-23T05:01:12.188Z,98018.25
2022-12-23T05:03:40.214Z,98015.09
2022-12-23T05:06:07.219Z,98007.03
2022-12-23T05:08:34.475Z,97997.91
2022-12-23T05:11:01.310Z,97992.28
2022-12-23T05:13:28.128Z,98023.53
2022-12-23T05:15:55.265Z,98014.16
2022-12-23T05:18:22.960Z,98015.56
2022-12-23T05:20:50.123Z,98018.87
2022-12-23T05:23:16.919Z,98039.59
2022-12-23T05:25:43.743Z,98032.31
2022-12-23T05:28:10.881Z,98053.84
2022-12-23T05:30:37.723Z,98060.06
2022-12-23T05:33:04.604Z,98042.47
2022-12-23T05:35:31.416Z,98061.94
2022-12-23T05:37:58.409Z,98049.28
2022-12-23T05:40:27.823Z,98046.00
2022-12-23T05:42:57.987Z,98048.69
2022-12-23T05:45:24.875Z,98055.72
2022-12-23T05:47:51.686Z,98053.03
2022-12-23T05:50:18.847Z,98044.97
2022-12-23T05:52:45.817Z,98025.91
2022-12-23T05:55:12.681Z,98022.38
2022-12-23T05:57:39.513Z,98017.00
2022-12-23T06:00:06.998Z,98021.56
2022-12-23T06:02:34.045Z,98029.63
2022-12-23T06:05:00.990Z,98037.72
2022-12-23T06:07:27.762Z,98045.78
2022-12-23T06:09:54.557Z,98044.13
2022-12-23T06:12:21.348Z,98033.97
2022-12-23T06:14:48.118Z,98025.75
2022-12-23T06:17:14.956Z,98018.38
2022-12-23T06:19:41.828Z,98004.09
2022-12-23T06:22:08.643Z,98017.56
2022-12-23T06:24:35.477Z,98004.81
2022-12-23T06:27:02.319Z,97989.72
2022-12-23T06:29:29.358Z,98008.31
2022-12-23T06:31:56.176Z,98000.72
2022-12-23T06:34:22.970Z,98000.94
2022-12-23T06:36:49.851Z,97997.69
2022-12-23T06:39:16.710Z,97998.03
2022-12-23T06:41:43.492Z,98005.88
2022-12-23T06:44:10.293Z,98014.53
2022-12-23T06:46:37.316Z,98028.22
2022-12-23T06:49:09.141Z,98020.97
2022-12-23T06:51:39.719Z,98027.97
2022-12-23T06:54:06.528Z,98032.53
2022-12-23T06:56:34.009Z,98033.47
2022-12-23T06:59:00.833Z,98047.97
2022-12-23T07:01:27.798Z,98057.91
2022-12-23T07:03:54.670Z,98060.59
2022-12-23T07:06:21.530Z,98047.50
2022-12-23T07:08:48.382Z,98042.59
2022-12-23T07:11:15.238Z,98033.47
2022-12-23T07:13:42.055Z,98058.37
2022-12-23T07:16:09.570Z,98062.09
2022-12-23T07:18:36.433Z,98068.31
2022-12-23T07:21:03.729Z,98069.59
2022-12-23T07:23:31.035Z,98060.47
2022-12-23T07:25:57.927Z,98047.63
2022-12-23T07:28:24.851Z,98046.56
2022-12-23T07:30:51.683Z,98053.00
2022-12-23T07:33:18.479Z,98040.97
2022-12-23T07:35:45.270Z,98045.53
2022-12-23T07:38:12.142Z,98036.63
2022-12-23T07:40:39.226Z,98035.56
2022-12-23T07:43:06.100Z,98028.31
2022-12-23T07:45:33.007Z,98031.59
2022-12-23T07:48:01.573Z,98024.34
2022-12-23T07:50:28.598Z,98020.03
2022-12-23T07:52:55.936Z,98034.28
2022-12-23T07:55:23.166Z,98025.16
2022-12-23T07:57:53.684Z,98024.12
2022-12-23T08:00:20.825Z,98018.16
2022-12-23T08:02:48.235Z,98018.50
2022-12-23T08:05:15.778Z,98038.50
2022-12-23T08:07:45.068Z,98018.38
2022-12-23T08:10:13.084Z,98020.25
2022-12-23T08:12:39.918Z,98036.88
2022-12-23T08:15:08.279Z,98032.88
2022-12-23T08:17:35.065Z,98032.66
2022-12-23T08:20:02.217Z,98035.34
2022-12-23T08:22:31.425Z,98058.16
2022-12-23T08:24:59.454Z,98055.22
2022-12-23T08:27:26.620Z,98051.13
2022-12-23T08:29:53.416Z,98061.44
2022-12-23T08:32:20.215Z,98039.66
2022-12-23T08:34:47.039Z,98047.75
2022-12-23T08:37:14.051Z,98050.19
2022-12-23T08:39:40.979Z,98040.59
2022-12-23T08:42:08.576Z,98040.75
2022-12-23T08:44:35.417Z,98039.12
2022-12-23T08:47:02.248Z,98043.44
2022-12-23T08:49:29.128Z,98049.66
2022-12-23T08:51:55.985Z,98045.66
2022-12-23T08:54:23.882Z,98049.28
2022-12-23T08:56:50.801Z,98047.19
2022-12-23T08:59:19.549Z,98051.75
2022-12-23T09:01:47.998Z,98050.81
2022-12-23T09:04:15.645Z,98047.47
2022-12-23T09:06:42.981Z,98045.34
2022-12-23T09:09:12.455Z,98045.47
2022-12-23T09:11:39.257Z,98040.41
2022-12-23T09:14:08.783Z,98039.72
2022-12-23T09:16:36.406Z,98049.78
2022-12-23T09:19:03.889Z,98036.06
2022-12-23T09:21:30.739Z,98039.94
2022-12-23T09:23:57.596Z,98034.31
2022-12-23T09:26:27.266Z,98033.84
2022-12-23T09:28:54.555Z,98025.28
2022-12-23T09:31:22.418Z,98014.84
2022-12-23T09:33:51.114Z,98023.03
2022-12-23T09:36:18.511Z,98023.38
2022-12-23T09:38:45.470Z,98023.28
2022-12-23T09:41:12.257Z,98024.44
2022-12-23T09:44:10.073Z,98020.19
2022-12-23T09:46:44.181Z,98026.50
2022-12-23T09:49:14.153Z,98023.94
2022-12-23T09:51:40.975Z,98031.03
2022-12-23T09:54:28.986Z,98026.56
2022-12-23T09:57:00.561Z,98022.31
2022-12-23T09:59:45.519Z,98029.69
2022-12-23T10:02:30.817Z,98019.03
2022-12-23T10:05:14.197Z,98013.97
2022-12-23T10:08:01.559Z,98022.94
2022-12-23T10:10:52.511Z,97999.81
2022-12-23T10:13:29.841Z,97999.34
2022-12-23T10:16:03.445Z,98002.59
2022-12-23T10:18:53.547Z,98013.97
2022-12-23T10:21:46.968Z,98006.25
2022-12-23T10:24:33.729Z,97989.56
2022-12-23T10:27:15.516Z,97982.03
2022-12-23T10:29:42.580Z,97988.00
2022-12-23T10:32:21.328Z,97998.31
2022-12-23T10:35:22.957Z,97992.41
2022-12-23T10:38:22.160Z,97992.75
2022-12-23T10:41:13.899Z,97993.09
2022-12-23T10:44:20.471Z,98001.53
2022-12-23T10:47:15.035Z,97992.69
2022-12-23T10:49:50.907Z,97999.47
2022-12-23T10:52:34.731Z,97996.59
2022-12-23T10:55:01.561Z,97994.22
2022-12-23T10:57:29.649Z,97995.16
2022-12-23T10:59:57.329Z,98012.22
2022-12-23T11:02:24.236Z,98017.72
2022-12-23T11:04:51.182Z,98008.88
2022-12-23T11:07:44.271Z,98002.72
2022-12-23T11:10:19.442Z,98000.12
2022-12-23T11:12:49.790Z,98002.88
2022-12-23T11:15:28.668Z,97997.53
2022-12-23T11:18:05.240Z,97988.94
2022-12-23T11:20:33.644Z,97990.88
2022-12-23T11:23:03.019Z,98000.41
2022-12-23T11:25:32.789Z,97996.13
2022-12-23T11:28:08.225Z,97993.75
2022-12-23T11:30:50.287Z,97990.53
2022-12-23T11:33:31.362Z,97992.50
2022-12-23T11:36:04.803Z,97999.28
2022-12-23T11:38:32.676Z,97999.59
2022-12-23T11:40:59.825Z,98006.16
2022-12-23T11:43:28.448Z,98010.25
2022-12-23T11:46:15.554Z,98008.12
2022-12-23T11:48:42.688Z,98006.56
2022-12-23T11:51:09.465Z,98013.34
2022-12-23T11:53:36.796Z,98015.53
2022-12-23T11:56:08.156Z,98017.75
2022-12-23T11:58:46.203Z,98015.59
2022-12-23T12:01:20.249Z,98011.34
2022-12-23T12:04:09.271Z,98017.88
2022-12-23T12:06:41.885Z,98020.09
2022-12-23T12:09:13.085Z,98015.22
2022-12-23T12:11:56.595Z,98025.53
2022-12-23T12:14:51.595Z,98012.59
2022-12-23T12:17:48.216Z,98021.00
2022-12-23T12:20:24.136Z,98025.69
2022-12-23T12:23:03.164Z,98023.53
2022-12-23T12:25:44.948Z,98012.47
2022-12-23T12:28:19.131Z,98013.03
2022-12-23T12:30:57.854Z,98018.19
2022-12-23T12:33:35.996Z,98017.66
2022-12-23T12:36:36.296Z,98006.59
2022-12-23T12:39:04.031Z,98007.41
2022-12-23T12:41:38.137Z,98019.34
2022-12-23T12:44:48.541Z,98023.94
2022-12-23T12:47:52.547Z,98021.78
2022-12-23T12:50:29.379Z,98023.19
2022-12-23T12:53:02.317Z,98008.34
2022-12-23T12:55:35.437Z,98009.72
2022-12-23T12:58:05.411Z,98010.03
2022-12-23T13:00:43.566Z,98014.09
2022-12-23T13:03:30.855Z,98009.25
2022-12-23T13:06:27.079Z,98006.03
2022-12-23T13:09:16.999Z,98006.59
2022-12-23T13:12:34.037Z,98006.91
2022-12-23T13:15:29.582Z,98011.78
2022-12-23T13:18:05.366Z,98009.66
2022-12-23T13:20:40.669Z,98012.69
2022-12-23T13:23:41.802Z,98027.59
2022-12-23T13:26:08.593Z,98028.16
2022-12-23T13:28:55.906Z,98018.69
2022-12-23T13:31:57.912Z,98023.84
2022-12-23T13:35:00.963Z,98024.41
2022-12-23T13:37:47.767Z,98026.84
2022-12-23T13:40:32.962Z,98035.53
2022-12-23T13:43:06.105Z,98034.19
2022-12-23T13:45:37.515Z,98030.41
2022-12-23T13:48:19.339Z,98029.34
2022-12-23T13:50:57.078Z,98035.34
2022-12-23T13:53:47.465Z,98035.09
2022-12-23T13:56:27.308Z,98039.44
2022-12-23T13:58:54.472Z,98048.38
2022-12-23T14:01:33.091Z,98042.69
2022-12-23T14:04:31.176Z,98052.44
2022-12-23T14:07:21.383Z,98049.47
2022-12-23T14:09:53.349Z,98055.72
2022-12-23T14:12:27.221Z,98058.97
2022-12-23T14:15:13.277Z,98060.88
2022-12-23T14:17:48.821Z,98054.62
2022-12-23T14:20:31.306Z,98061.69
2022-12-23T14:23:19.184Z,98065.22
2022-12-23T14:25:45.898Z,98068.75
2022-12-23T14:28:44.997Z,98066.84
2022-12-23T14:31:39.261Z,98060.59
2022-12-23T14:34:25.153Z,98064.94
2022-12-23T14:37:17.062Z,98063.31
2022-12-23T14:39:44.046Z,98053.56
2022-12-23T14:42:16.417Z,98060.59
2022-12-23T14:44:50.224Z,98066.03
2022-12-23T14:47:35.823Z,98076.03
2022-12-23T14:50:42.945Z,98074.97
2022-12-23T14:53:22.964Z,98063.31
2022-12-23T14:55:51.836Z,98064.13
2022-12-23T14:58:20.352Z,98064.41
2022-12-23T15:00:50.992Z,98072.53
2022-12-23T15:03:20.343Z,98076.88
2022-12-23T15:05:47.599Z,98075.22
2022-12-23T15:08:33.680Z,98076.56
2022-12-23T15:11:00.808Z,98081.97
2022-12-23T15:13:30.010Z,98081.16
2022-12-23T15:16:01.338Z,98081.16
2022-12-23T15:18:29.066Z,98073.03
2022-12-23T15:21:04.904Z,98068.69
2022-12-23T15:23:33.340Z,98055.16
2022-12-23T15:26:01.492Z,98067.88
2022-12-23T15:28:38.578Z,98062.72
2022-12-23T15:31:06.605Z,98062.72
2022-12-23T15:36:37.076Z,98045.09
2022-12-23T15:39:14.079Z,98047.00
2022-12-23T15:41:46.299Z,98039.94
2022-12-23T15:44:18.817Z,98044.53
2022-12-23T15:46:45.732Z,98050.19
2022-12-23T15:49:12.873Z,98046.91
2022-12-23T15:54:40.519Z,98039.88
2022-12-23T15:57:07.360Z,98031.44
2022-12-23T15:59:38.839Z,98054.19
2022-12-23T16:05:32.259Z,98066.88
2022-12-23T16:08:11.934Z,98051.94
2022-12-23T16:10:39.937Z,98048.94
2022-12-23T16:13:18.171Z,98042.16
2022-12-23T16:15:45.511Z,98052.97
2022-12-23T16:18:32.747Z,98051.56
2022-12-23T16:21:02.932Z,98045.34
2022-12-23T16:23:36.561Z,98056.69
2022-12-23T16:26:04.241Z,98057.50
2022-12-23T16:28:43.308Z,98056.94
2022-12-23T16:31:11.245Z,98056.94
2022-12-23T16:33:56.736Z,98053.41
2022-12-23T16:36:26.495Z,98060.72
2022-12-23T16:38:59.251Z,98059.09
2022-12-23T16:41:26.402Z,98058.53
2022-12-23T16:43:53.349Z,98053.12
2022-12-23T16:46:22.745Z,98055.81
2022-12-23T16:48:58.885Z,98051.47
2022-12-23T16:51:28.035Z,98055.81
2022-12-23T16:53:57.516Z,98049.84
2022-12-23T16:56:29.895Z,98055.50
2022-12-23T16:58:56.794Z,98067.41
2022-12-23T17:01:27.788Z,98063.88
2022-12-23T17:03:55.998Z,98059.03
2022-12-23T17:06:23.399Z,98064.44
2022-12-23T17:08:50.697Z,98060.94
2022-12-23T17:11:23.584Z,98063.88
2022-12-23T17:13:51.563Z,98055.78
2022-12-23T17:16:24.385Z,98054.94
2022-12-23T17:18:53.240Z,98052.25
2022-12-23T17:21:36.769Z,98046.03
2022-12-23T17:24:24.707Z,98046.84
2022-12-23T17:26:52.482Z,98041.69
2022-12-23T17:29:19.749Z,98042.50
2022-12-23T17:31:48.086Z,98048.97
2022-12-23T17:34:20.847Z,98047.91
2022-12-23T17:36:50.647Z,98048.16
2022-12-23T17:39:19.244Z,98046.53
2022-12-23T17:41:46.414Z,98028.66
2022-12-23T17:44:15.502Z,98029.16
2022-12-23T17:46:42.499Z,98036.22
2022-12-23T17:49:09.464Z,98027.28
2022-12-23T17:51:37.560Z,98027.50
2022-12-23T17:54:05.792Z,98030.00
2022-12-23T17:56:33.045Z,98038.34
2022-12-23T17:58:59.886Z,98037.53
2022-12-23T18:01:30.023Z,98052.94
2022-12-23T18:03:58.304Z,98058.34
2022-12-23T18:06:26.633Z,98052.94
2022-12-23T18:08:53.586Z,98070.25
2022-12-23T18:11:29.501Z,98071.31
2022-12-23T18:13:56.512Z,98061.31
2022-12-23T18:16:23.390Z,98067.78
2022-12-23T18:18:50.268Z,98058.84
2022-12-23T18:21:27.098Z,98068.59
2022-12-23T18:23:56.756Z,98068.59
2022-12-23T18:26:23.903Z,98059.69
2022-12-23T18:28:51.463Z,98058.28
2022-12-23T18:31:24.383Z,98057.22
2022-12-23T18:33:51.497Z,98056.66
2022-12-23T18:36:21.048Z,98048.53
2022-12-23T18:38:47.994Z,98052.31
2022-12-23T18:41:14.952Z,98044.72
2022-12-23T18:43:41.725Z,98042.84
2022-12-23T18:46:08.625Z,98051.75
2022-12-23T18:48:35.556Z,98052.84
2022-12-23T18:51:02.432Z,98059.06
2022-12-23T18:53:29.401Z,98061.19
2022-12-23T18:55:56.302Z,98065.22
2022-12-23T18:58:24.462Z,98054.16
2022-12-23T19:00:52.689Z,98056.03
2022-12-23T19:03:25.431Z,98056.03
2022-12-23T19:05:53.792Z,98064.16
2022-12-23T19:08:26.628Z,98056.31
2022-12-23T19:10:55.156Z,98056.31
2022-12-23T19:13:22.559Z,98050.63
2022-12-23T19:15:50.020Z,98054.16
2022-12-23T19:18:19.774Z,98050.06
2022-12-23T19:20:48.125Z,98041.72
2022-12-23T19:23:15.841Z,98025.47
2022-12-23T19:25:49.143Z,98046.28
2022-12-23T19:28:21.724Z,98038.19
2022-12-23T19:30:48.844Z,98037.13
2022-12-23T19:33:16.132Z,98032.53
2022-12-23T19:35:44.003Z,98048.19
2022-12-23T19:38:12.479Z,98051.16
2022-12-23T19:40:40.245Z,98034.66
2022-12-23T19:43:08.205Z,98035.47
2022-12-23T19:45:35.089Z,98031.12
2022-12-23T19:48:02.054Z,98036.56
2022-12-23T19:50:28.903Z,98031.41
2022-12-23T19:52:56.586Z,98033.03
2022-12-23T19:55:24.211Z,98022.22
2022-12-23T19:57:52.556Z,98007.06
2022-12-23T20:00:20.024Z,98005.16
2022-12-23T20:02:47.025Z,98005.16
2022-12-23T20:05:13.847Z,97981.06
2022-12-23T20:07:40.728Z,97991.91
2022-12-23T20:10:08.362Z,97975.91
2022-12-23T20:12:35.481Z,97977.00
2022-12-23T20:15:02.499Z,97969.69
2022-12-23T20:17:29.672Z,97958.28
2022-12-23T20:19:56.845Z,97963.47
2022-12-23T20:22:42.643Z,97958.28
2022-12-23T20:25:09.927Z,97969.91
2022-12-23T20:27:38.809Z,97966.66
2022-12-23T20:30:06.497Z,97969.38
2022-12-23T20:32:33.296Z,97980.19
2022-12-23T20:35:00.332Z,97981.25
2022-12-23T20:37:27.192Z,97976.09
2022-12-23T20:39:54.270Z,97976.91
2022-12-23T20:42:21.475Z,97959.88
2022-12-23T20:44:48.811Z,97957.69
2022-12-23T20:47:15.973Z,97966.59
2022-12-23T20:49:42.891Z,97960.38
2022-12-23T20:52:09.663Z,97966.87
2022-12-23T20:54:36.787Z,97979.31
2022-12-23T20:57:03.988Z,97966.87
2022-12-23T20:59:30.916Z,97970.38
2022-12-23T21:01:59.369Z,97960.13
2022-12-23T21:04:26.629Z,97962.84
2022-12-23T21:06:53.788Z,97960.13
2022-12-23T21:09:20.673Z,97953.66
2022-12-23T21:11:47.958Z,97941.75
2022-12-23T21:14:16.285Z,97942.56
2022-12-23T21:16:43.409Z,97919.56
2022-12-23T21:19:18.380Z,97921.75
2022-12-23T21:21:45.998Z,97928.78
2022-12-23T21:24:13.022Z,97939.62
2022-12-23T21:26:40.081Z,97934.19
2022-12-23T21:29:08.844Z,97935.84
2022-12-23T21:31:39.263Z,97935.03
2022-12-23T21:34:07.295Z,97939.12
2022-12-23T21:36:37.431Z,97932.91
2022-12-23T21:39:06.117Z,97939.94
2022-12-23T21:41:38.346Z,97938.88
2022-12-23T21:44:06.470Z,97941.56
2022-12-23T21:46:33.679Z,97943.22
2022-12-23T21:49:00.624Z,97941.56
2022-12-23T21:51:36.928Z,97939.19
2022-12-23T21:54:07.457Z,97937.28
2022-12-23T21:56:34.298Z,97931.31
2022-12-23T21:59:06.155Z,97912.37
2022-12-23T22:01:33.619Z,97911.56
2022-12-23T22:04:00.572Z,97925.34
2022-12-23T22:06:30.427Z,97915.09
2022-12-23T22:08:57.845Z,97906.16
2022-12-23T22:11:27.179Z,97908.31
2022-12-23T22:13:56.257Z,97879.12
2022-12-23T22:16:24.795Z,97885.34
2022-12-23T22:18:52.485Z,97873.69
2022-12-23T22:21:23.035Z,97875.84
2022-12-23T22:23:51.993Z,97863.97
2022-12-23T22:26:25.125Z,97853.41
2022-12-23T22:28:55.277Z,97866.91
2022-12-23T22:31:39.978Z,97881.50
2022-12-23T22:34:08.241Z,97868.81
2022-12-23T22:36:35.229Z,97856.34
2022-12-23T22:39:02.513Z,97874.44
2022-12-23T22:41:30.802Z,97872.56
2022-12-23T22:43:58.472Z,97882.56
2022-12-23T22:46:25.971Z,97884.44
2022-12-23T22:48:53.591Z,97905.00
2022-12-23T22:51:23.819Z,97898.22
2022-12-23T22:53:50.744Z,97904.44
2022-12-23T22:56:19.462Z,97894.72
2022-12-23T22:58:46.997Z,97888.22
2022-12-23T23:01:25.829Z,97899.03
2022-12-23T23:03:57.518Z,97897.16
2022-12-23T23:06:28.342Z,97893.38
2022-12-23T23:08:55.851Z,97914.19
2022-12-23T23:11:23.692Z,97916.91
2022-12-23T23:13:50.882Z,97901.75
2022-12-23T23:16:17.825Z,97908.78
2022-12-23T23:18:44.730Z,97906.34
2022-12-23T23:21:13.193Z,97903.63
2022-12-23T23:23:40.316Z,97900.13
2022-12-23T23:26:10.237Z,97907.97
2022-12-23T23:28:40.570Z,97905.53
2022-12-23T23:33:55.425Z,97906.34
2022-12-23T23:36:22.278Z,97904.44
2022-12-23T23:38:49.077Z,97909.06
2022-12-23T23:41:20.742Z,97902.00
2022-12-23T23:43:50.339Z,97895.53
2022-12-23T23:46:17.242Z,97881.19
2022-12-23T23:48:44.109Z,97876.59
2022-12-23T23:51:11.001Z,97876.59
2022-12-23T23:53:38.017Z,97872.25
2022-12-23T23:56:06.933Z,97857.91
2022-12-23T23:58:34.190Z,97836.28
